sensor_id;sensor_type;location;lat;lon;timestamp;pressure;altitude;pressure_sealevel;temperature;humidity
52719;BME280;38616;42.140;24.760;2023-05-08T00:01:57;99836.88;;;16.10;44.85
52719;BME280;38616;42.140;24.760;2023-05-08T00:04:23;99836.28;;;16.14;44.42
52719;BME280;38616;42.140;24.760;2023-05-08T00:06:48;99834.53;;;16.18;44.38
52719;BME280;38616;42.140;24.760;2023-05-08T00:09:15;99829.00;;;16.09;44.41
52719;BME280;38616;42.140;24.760;2023-05-08T00:11:41;99836.59;;;16.12;44.40
52719;BME280;38616;42.140;24.760;2023-05-08T00:14:06;99835.63;;;15.94;44.81
52719;BME280;38616;42.140;24.760;2023-05-08T00:16:32;99831.84;;;16.04;44.45
52719;BME280;38616;42.140;24.760;2023-05-08T00:18:57;99825.69;;;16.21;43.99
52719;BME280;38616;42.140;24.760;2023-05-08T00:21:23;99843.81;;;16.08;44.33
52719;BME280;38616;42.140;24.760;2023-05-08T00:23:49;99838.88;;;16.19;44.14
52719;BME280;38616;42.140;24.760;2023-05-08T00:26:14;99830.88;;;16.22;43.86
52719;BME280;38616;42.140;24.760;2023-05-08T00:28:39;99831.25;;;16.07;44.00
52719;BME280;38616;42.140;24.760;2023-05-08T00:31:05;99832.63;;;15.81;44.92
52719;BME280;38616;42.140;24.760;2023-05-08T00:33:30;99834.03;;;15.79;44.90
52719;BME280;38616;42.140;24.760;2023-05-08T00:36:03;99833.44;;;15.82;45.00
52719;BME280;38616;42.140;24.760;2023-05-08T00:38:30;99835.13;;;15.92;44.79
52719;BME280;38616;42.140;24.760;2023-05-08T00:40:55;99837.09;;;15.91;45.00
52719;BME280;38616;42.140;24.760;2023-05-08T00:43:21;99830.47;;;15.92;44.96
52719;BME280;38616;42.140;24.760;2023-05-08T00:45:50;99838.53;;;15.89;45.20
52719;BME280;38616;42.140;24.760;2023-05-08T00:48:16;99847.09;;;15.96;45.03
52719;BME280;38616;42.140;24.760;2023-05-08T00:50:42;99845.81;;;15.79;45.27
52719;BME280;38616;42.140;24.760;2023-05-08T00:53:07;99842.25;;;15.79;45.11
52719;BME280;38616;42.140;24.760;2023-05-08T00:55:33;99849.78;;;15.87;45.19
52719;BME280;38616;42.140;24.760;2023-05-08T00:57:58;99856.25;;;15.91;44.94
52719;BME280;38616;42.140;24.760;2023-05-08T01:00:24;99850.66;;;15.97;44.78
52719;BME280;38616;42.140;24.760;2023-05-08T01:02:50;99855.50;;;15.63;45.55
52719;BME280;38616;42.140;24.760;2023-05-08T01:05:16;99855.66;;;15.80;44.91
52719;BME280;38616;42.140;24.760;2023-05-08T01:07:42;99864.28;;;15.74;45.02
52719;BME280;38616;42.140;24.760;2023-05-08T01:10:07;99858.81;;;15.74;44.92
52719;BME280;38616;42.140;24.760;2023-05-08T01:17:58;99874.00;;;15.80;44.68
52719;BME280;38616;42.140;24.760;2023-05-08T01:34:50;99864.72;;;15.67;44.69
52719;BME280;38616;42.140;24.760;2023-05-08T01:37:28;99869.31;;;15.58;44.87
52719;BME280;38616;42.140;24.760;2023-05-08T01:45:08;99870.53;;;15.51;44.77
52719;BME280;38616;42.140;24.760;2023-05-08T01:47:36;99870.03;;;15.49;45.06
52719;BME280;38616;42.140;24.760;2023-05-08T01:50:05;99873.06;;;15.48;44.94
52719;BME280;38616;42.140;24.760;2023-05-08T01:52:42;99876.13;;;15.46;45.21
52719;BME280;38616;42.140;24.760;2023-05-08T01:55:13;99866.56;;;15.58;44.73
52719;BME280;38616;42.140;24.760;2023-05-08T01:57:46;99865.53;;;15.68;44.42
52719;BME280;38616;42.140;24.760;2023-05-08T02:00:18;99868.59;;;15.52;44.85
52719;BME280;38616;42.140;24.760;2023-05-08T02:02:46;99867.41;;;15.44;44.96
52719;BME280;38616;42.140;24.760;2023-05-08T02:05:13;99876.97;;;15.19;45.52
52719;BME280;38616;42.140;24.760;2023-05-08T02:07:41;99876.63;;;15.20;45.52
52719;BME280;38616;42.140;24.760;2023-05-08T02:10:09;99864.97;;;15.29;45.69
52719;BME280;38616;42.140;24.760;2023-05-08T02:12:36;99866.19;;;15.36;45.41
52719;BME280;38616;42.140;24.760;2023-05-08T02:15:04;99870.06;;;15.21;45.32
52719;BME280;38616;42.140;24.760;2023-05-08T02:17:30;99866.00;;;15.33;45.28
52719;BME280;38616;42.140;24.760;2023-05-08T02:19:59;99857.56;;;15.43;45.05
52719;BME280;38616;42.140;24.760;2023-05-08T02:22:27;99861.13;;;15.44;44.44
52719;BME280;38616;42.140;24.760;2023-05-08T02:24:53;99856.13;;;15.60;44.05
52719;BME280;38616;42.140;24.760;2023-05-08T02:27:24;99859.78;;;15.41;44.79
52719;BME280;38616;42.140;24.760;2023-05-08T02:29:51;99859.78;;;15.41;44.56
52719;BME280;38616;42.140;24.760;2023-05-08T02:32:18;99857.88;;;15.28;44.64
52719;BME280;38616;42.140;24.760;2023-05-08T02:34:46;99867.22;;;15.41;44.61
52719;BME280;38616;42.140;24.760;2023-05-08T02:37:13;99867.00;;;15.37;44.65
52719;BME280;38616;42.140;24.760;2023-05-08T02:39:41;99873.59;;;15.08;45.20
52719;BME280;38616;42.140;24.760;2023-05-08T02:42:08;99867.63;;;15.06;45.53
52719;BME280;38616;42.140;24.760;2023-05-08T02:44:33;99872.09;;;15.16;45.24
52719;BME280;38616;42.140;24.760;2023-05-08T02:50:34;99876.34;;;14.94;45.98
52719;BME280;38616;42.140;24.760;2023-05-08T02:53:03;99873.31;;;14.96;45.41
52719;BME280;38616;42.140;24.760;2023-05-08T02:58:10;99876.56;;;15.12;45.06
52719;BME280;38616;42.140;24.760;2023-05-08T03:01:10;99872.81;;;14.94;45.54
52719;BME280;38616;42.140;24.760;2023-05-08T03:03:40;99872.91;;;15.02;45.36
52719;BME280;38616;42.140;24.760;2023-05-08T03:06:11;99876.13;;;14.90;45.05
52719;BME280;38616;42.140;24.760;2023-05-08T03:08:38;99870.78;;;14.85;45.34
52719;BME280;38616;42.140;24.760;2023-05-08T03:11:10;99865.91;;;15.10;44.51
52719;BME280;38616;42.140;24.760;2023-05-08T03:13:39;99875.44;;;14.99;44.95
52719;BME280;38616;42.140;24.760;2023-05-08T03:16:05;99881.50;;;14.96;44.91
52719;BME280;38616;42.140;24.760;2023-05-08T03:18:35;99878.56;;;14.92;45.01
52719;BME280;38616;42.140;24.760;2023-05-08T03:21:07;99879.47;;;15.01;44.75
52719;BME280;38616;42.140;24.760;2023-05-08T03:23:35;99886.56;;;15.02;44.17
52719;BME280;38616;42.140;24.760;2023-05-08T03:26:03;99883.00;;;15.02;44.20
52719;BME280;38616;42.140;24.760;2023-05-08T03:28:30;99890.31;;;14.92;44.68
52719;BME280;38616;42.140;24.760;2023-05-08T03:30:57;99894.69;;;14.94;44.48
52719;BME280;38616;42.140;24.760;2023-05-08T03:33:24;99896.59;;;14.93;44.77
52719;BME280;38616;42.140;24.760;2023-05-08T03:35:52;99897.41;;;14.94;45.06
52719;BME280;38616;42.140;24.760;2023-05-08T03:38:18;99888.28;;;14.98;45.10
52719;BME280;38616;42.140;24.760;2023-05-08T03:40:44;99886.25;;;14.90;45.30
52719;BME280;38616;42.140;24.760;2023-05-08T03:43:10;99891.63;;;14.95;45.58
52719;BME280;38616;42.140;24.760;2023-05-08T03:45:38;99890.94;;;14.89;45.78
52719;BME280;38616;42.140;24.760;2023-05-08T03:48:05;99897.81;;;14.87;45.61
52719;BME280;38616;42.140;24.760;2023-05-08T03:50:31;99903.28;;;14.87;45.79
52719;BME280;38616;42.140;24.760;2023-05-08T03:53:00;99901.56;;;14.91;45.69
52719;BME280;38616;42.140;24.760;2023-05-08T03:55:25;99898.63;;;14.87;45.79
52719;BME280;38616;42.140;24.760;2023-05-08T03:58:00;99903.50;;;14.90;46.13
52719;BME280;38616;42.140;24.760;2023-05-08T04:01:22;99906.44;;;15.08;45.92
52719;BME280;38616;42.140;24.760;2023-05-08T04:06:22;99904.50;;;14.95;45.95
52719;BME280;38616;42.140;24.760;2023-05-08T04:09:18;99916.06;;;14.91;46.00
52719;BME280;38616;42.140;24.760;2023-05-08T04:12:01;99920.72;;;15.05;45.98
52719;BME280;38616;42.140;24.760;2023-05-08T04:17:18;99915.47;;;15.09;45.64
52719;BME280;38616;42.140;24.760;2023-05-08T04:19:51;99915.03;;;15.15;45.12
52719;BME280;38616;42.140;24.760;2023-05-08T04:22:22;99921.84;;;15.32;44.67
52719;BME280;38616;42.140;24.760;2023-05-08T04:24:50;99921.84;;;15.32;44.47
52719;BME280;38616;42.140;24.760;2023-05-08T04:27:17;99919.72;;;15.29;44.20
52719;BME280;38616;42.140;24.760;2023-05-08T04:29:43;99915.56;;;15.31;44.34
52719;BME280;38616;42.140;24.760;2023-05-08T04:32:09;99916.53;;;15.63;43.31
52719;BME280;38616;42.140;24.760;2023-05-08T04:34:35;99917.16;;;15.74;42.67
52719;BME280;38616;42.140;24.760;2023-05-08T04:37:01;99915.13;;;15.66;42.82
52719;BME280;38616;42.140;24.760;2023-05-08T04:39:26;99911.13;;;15.86;42.31
52719;BME280;38616;42.140;24.760;2023-05-08T04:41:52;99918.66;;;15.94;42.47
52719;BME280;38616;42.140;24.760;2023-05-08T04:44:19;99919.19;;;16.19;41.27
52719;BME280;38616;42.140;24.760;2023-05-08T04:46:44;99917.47;;;16.09;41.15
52719;BME280;38616;42.140;24.760;2023-05-08T04:49:10;99919.94;;;16.11;41.26
52719;BME280;38616;42.140;24.760;2023-05-08T04:51:36;99919.53;;;16.04;41.15
52719;BME280;38616;42.140;24.760;2023-05-08T04:54:01;99915.69;;;16.05;40.31
52719;BME280;38616;42.140;24.760;2023-05-08T04:56:26;99913.72;;;16.19;40.61
52719;BME280;38616;42.140;24.760;2023-05-08T04:58:52;99916.09;;;15.98;40.70
52719;BME280;38616;42.140;24.760;2023-05-08T05:01:17;99904.16;;;16.17;40.57
52719;BME280;38616;42.140;24.760;2023-05-08T05:03:42;99899.88;;;16.24;40.59
52719;BME280;38616;42.140;24.760;2023-05-08T05:06:08;99908.06;;;16.02;41.14
52719;BME280;38616;42.140;24.760;2023-05-08T05:08:33;99906.09;;;16.16;41.32
52719;BME280;38616;42.140;24.760;2023-05-08T05:10:59;99903.22;;;16.44;40.90
52719;BME280;38616;42.140;24.760;2023-05-08T05:13:24;99904.22;;;16.48;40.66
52719;BME280;38616;42.140;24.760;2023-05-08T05:15:49;99908.91;;;16.48;40.60
52719;BME280;38616;42.140;24.760;2023-05-08T05:18:18;99908.94;;;16.57;41.10
52719;BME280;38616;42.140;24.760;2023-05-08T05:20:44;99906.22;;;16.88;40.09
52719;BME280;38616;42.140;24.760;2023-05-08T05:23:10;99901.66;;;17.06;40.28
52719;BME280;38616;42.140;24.760;2023-05-08T05:25:35;99893.88;;;16.99;39.85
52719;BME280;38616;42.140;24.760;2023-05-08T05:28:01;99904.72;;;17.05;39.76
52719;BME280;38616;42.140;24.760;2023-05-08T05:30:26;99900.72;;;16.88;39.74
52719;BME280;38616;42.140;24.760;2023-05-08T05:32:52;99895.56;;;16.55;39.99
52719;BME280;38616;42.140;24.760;2023-05-08T05:35:17;99883.03;;;16.63;39.85
52719;BME280;38616;42.140;24.760;2023-05-08T05:37:43;99885.41;;;16.55;40.13
52719;BME280;38616;42.140;24.760;2023-05-08T05:40:08;99886.34;;;16.82;39.78
52719;BME280;38616;42.140;24.760;2023-05-08T05:42:34;99879.38;;;17.08;38.72
52719;BME280;38616;42.140;24.760;2023-05-08T05:45:00;99882.03;;;16.90;39.11
52719;BME280;38616;42.140;24.760;2023-05-08T05:47:26;99879.38;;;17.08;39.35
52719;BME280;38616;42.140;24.760;2023-05-08T05:49:51;99882.63;;;17.10;39.25
52719;BME280;38616;42.140;24.760;2023-05-08T05:52:17;99878.25;;;16.77;38.60
52719;BME280;38616;42.140;24.760;2023-05-08T05:54:42;99883.97;;;16.58;39.07
52719;BME280;38616;42.140;24.760;2023-05-08T05:57:07;99874.84;;;16.72;39.62
52719;BME280;38616;42.140;24.760;2023-05-08T05:59:33;99866.50;;;16.77;39.57
52719;BME280;38616;42.140;24.760;2023-05-08T06:01:58;99866.28;;;16.19;40.59
52719;BME280;38616;42.140;24.760;2023-05-08T06:04:24;99875.50;;;16.00;41.62
52719;BME280;38616;42.140;24.760;2023-05-08T06:06:49;99863.75;;;16.22;41.51
52719;BME280;38616;42.140;24.760;2023-05-08T06:09:14;99856.22;;;16.60;40.81
52719;BME280;38616;42.140;24.760;2023-05-08T06:11:40;99867.41;;;17.04;39.67
52719;BME280;38616;42.140;24.760;2023-05-08T06:14:06;99865.22;;;17.23;39.59
52719;BME280;38616;42.140;24.760;2023-05-08T06:16:31;99865.28;;;17.41;39.27
52719;BME280;38616;42.140;24.760;2023-05-08T06:18:57;99855.47;;;16.99;39.21
52719;BME280;38616;42.140;24.760;2023-05-08T06:21:22;99858.91;;;17.23;38.98
52719;BME280;38616;42.140;24.760;2023-05-08T06:23:47;99856.03;;;17.28;38.76
52719;BME280;38616;42.140;24.760;2023-05-08T06:26:13;99854.28;;;17.41;38.72
52719;BME280;38616;42.140;24.760;2023-05-08T06:28:39;99865.47;;;17.71;38.47
52719;BME280;38616;42.140;24.760;2023-05-08T06:31:04;99864.19;;;17.60;38.34
52719;BME280;38616;42.140;24.760;2023-05-08T06:33:30;99859.47;;;17.69;38.50
52719;BME280;38616;42.140;24.760;2023-05-08T06:35:56;99862.25;;;17.86;38.69
52719;BME280;38616;42.140;24.760;2023-05-08T06:38:21;99855.81;;;18.00;38.06
52719;BME280;38616;42.140;24.760;2023-05-08T06:40:47;99855.47;;;17.93;38.33
52719;BME280;38616;42.140;24.760;2023-05-08T06:43:14;99849.47;;;17.91;38.11
52719;BME280;38616;42.140;24.760;2023-05-08T06:45:42;99841.56;;;17.80;38.29
52719;BME280;38616;42.140;24.760;2023-05-08T06:48:08;99842.03;;;17.73;37.83
52719;BME280;38616;42.140;24.760;2023-05-08T06:50:36;99847.53;;;17.56;38.37
52719;BME280;38616;42.140;24.760;2023-05-08T06:53:02;99850.44;;;17.68;38.88
52719;BME280;38616;42.140;24.760;2023-05-08T06:55:27;99835.25;;;17.88;38.59
52719;BME280;38616;42.140;24.760;2023-05-08T06:57:52;99844.31;;;17.63;39.06
52719;BME280;38616;42.140;24.760;2023-05-08T07:00:18;99832.34;;;17.94;38.94
52719;BME280;38616;42.140;24.760;2023-05-08T07:02:43;99842.03;;;17.73;39.23
52719;BME280;38616;42.140;24.760;2023-05-08T07:05:09;99828.63;;;17.90;39.73
52719;BME280;38616;42.140;24.760;2023-05-08T07:07:34;99829.44;;;18.16;39.31
52719;BME280;38616;42.140;24.760;2023-05-08T07:09:59;99810.81;;;18.31;38.75
52719;BME280;38616;42.140;24.760;2023-05-08T07:12:25;99823.31;;;18.67;38.28
52719;BME280;38616;42.140;24.760;2023-05-08T07:14:51;99827.00;;;18.80;37.83
52719;BME280;38616;42.140;24.760;2023-05-08T07:17:18;99816.13;;;18.84;38.09
52719;BME280;38616;42.140;24.760;2023-05-08T07:19:43;99814.97;;;18.94;38.29
52719;BME280;38616;42.140;24.760;2023-05-08T07:22:09;99818.69;;;18.89;38.02
52719;BME280;38616;42.140;24.760;2023-05-08T07:24:34;99816.91;;;18.93;38.03
52719;BME280;38616;42.140;24.760;2023-05-08T07:27:00;99813.31;;;18.63;37.73
52719;BME280;38616;42.140;24.760;2023-05-08T07:29:26;99820.75;;;18.62;38.60
52719;BME280;38616;42.140;24.760;2023-05-08T07:31:51;99817.75;;;18.85;38.66
52719;BME280;38616;42.140;24.760;2023-05-08T07:34:17;99808.41;;;18.68;38.74
52719;BME280;38616;42.140;24.760;2023-05-08T07:36:42;99808.88;;;18.79;38.65
52719;BME280;38616;42.140;24.760;2023-05-08T07:39:08;99813.47;;;18.57;38.84
52719;BME280;38616;42.140;24.760;2023-05-08T07:41:34;99818.75;;;18.71;38.93
52719;BME280;38616;42.140;24.760;2023-05-08T07:44:01;99816.50;;;18.73;38.96
52719;BME280;38616;42.140;24.760;2023-05-08T07:46:27;99811.72;;;19.00;38.37
52719;BME280;38616;42.140;24.760;2023-05-08T07:48:52;99820.06;;;19.13;37.98
52719;BME280;38616;42.140;24.760;2023-05-08T07:51:18;99815.25;;;19.01;38.23
52719;BME280;38616;42.140;24.760;2023-05-08T07:53:43;99807.44;;;19.12;38.21
52719;BME280;38616;42.140;24.760;2023-05-08T07:56:08;99803.22;;;18.75;38.55
52719;BME280;38616;42.140;24.760;2023-05-08T07:58:34;99796.25;;;18.78;38.70
52719;BME280;38616;42.140;24.760;2023-05-08T08:00:59;99802.44;;;18.66;39.07
52719;BME280;38616;42.140;24.760;2023-05-08T08:03:26;99796.88;;;18.84;39.27
52719;BME280;38616;42.140;24.760;2023-05-08T08:05:51;99780.75;;;18.26;39.86
52719;BME280;38616;42.140;24.760;2023-05-08T08:08:16;99795.34;;;17.91;40.63
52719;BME280;38616;42.140;24.760;2023-05-08T08:10:42;99780.78;;;18.08;40.79
52719;BME280;38616;42.140;24.760;2023-05-08T08:13:07;99775.44;;;18.12;40.75
52719;BME280;38616;42.140;24.760;2023-05-08T08:15:33;99780.09;;;18.29;40.72
52719;BME280;38616;42.140;24.760;2023-05-08T08:17:58;99782.34;;;18.27;40.23
52719;BME280;38616;42.140;24.760;2023-05-08T08:20:23;99777.84;;;18.70;39.65
52719;BME280;38616;42.140;24.760;2023-05-08T08:22:49;99777.84;;;18.70;40.12
52719;BME280;38616;42.140;24.760;2023-05-08T08:25:14;99774.59;;;18.68;39.87
52719;BME280;38616;42.140;24.760;2023-05-08T08:27:39;99772.53;;;18.56;39.79
52719;BME280;38616;42.140;24.760;2023-05-08T08:30:05;99773.19;;;18.92;39.80
52719;BME280;38616;42.140;24.760;2023-05-08T08:32:31;99767.41;;;19.14;39.23
52719;BME280;38616;42.140;24.760;2023-05-08T08:34:56;99763.72;;;19.10;39.48
52719;BME280;38616;42.140;24.760;2023-05-08T08:37:22;99758.59;;;19.00;39.42
52719;BME280;38616;42.140;24.760;2023-05-08T08:39:48;99769.16;;;18.89;39.94
52719;BME280;38616;42.140;24.760;2023-05-08T08:42:13;99765.16;;;18.78;40.08
52719;BME280;38616;42.140;24.760;2023-05-08T08:44:39;99768.38;;;18.80;40.50
52719;BME280;38616;42.140;24.760;2023-05-08T08:47:05;99755.69;;;18.96;39.59
52719;BME280;38616;42.140;24.760;2023-05-08T08:49:35;99751.69;;;19.15;39.86
52719;BME280;38616;42.140;24.760;2023-05-08T08:52:21;99755.03;;;18.99;40.10
52719;BME280;38616;42.140;24.760;2023-05-08T08:54:50;99751.50;;;19.20;39.82
52719;BME280;38616;42.140;24.760;2023-05-08T08:57:19;99750.06;;;19.56;39.52
52719;BME280;38616;42.140;24.760;2023-05-08T08:59:45;99743.66;;;19.86;39.11
52719;BME280;38616;42.140;24.760;2023-05-08T09:02:12;99740.88;;;20.07;38.71
52719;BME280;38616;42.140;24.760;2023-05-08T09:04:41;99736.19;;;20.20;38.64
52719;BME280;38616;42.140;24.760;2023-05-08T09:07:08;99739.69;;;20.54;38.58
52719;BME280;38616;42.140;24.760;2023-05-08T09:12:05;99731.50;;;20.58;38.08
52719;BME280;38616;42.140;24.760;2023-05-08T09:14:31;99724.28;;;20.65;38.14
52719;BME280;38616;42.140;24.760;2023-05-08T09:16:56;99729.47;;;20.79;37.73
52719;BME280;38616;42.140;24.760;2023-05-08T09:19:22;99711.59;;;20.89;37.62
52719;BME280;38616;42.140;24.760;2023-05-08T09:21:48;99714.72;;;21.00;37.67
52719;BME280;38616;42.140;24.760;2023-05-08T09:24:13;99699.03;;;21.17;37.29
52719;BME280;38616;42.140;24.760;2023-05-08T09:26:40;99698.47;;;21.39;36.91
52719;BME280;38616;42.140;24.760;2023-05-08T09:29:21;99695.63;;;21.36;36.95
52719;BME280;38616;42.140;24.760;2023-05-08T09:31:48;99697.22;;;21.37;37.10
52719;BME280;38616;42.140;24.760;2023-05-08T09:34:25;99686.84;;;21.46;37.00
52719;BME280;38616;42.140;24.760;2023-05-08T09:37:10;99683.31;;;21.33;36.97
52719;BME280;38616;42.140;24.760;2023-05-08T09:39:36;99668.59;;;21.29;37.21
52719;BME280;38616;42.140;24.760;2023-05-08T09:42:05;99675.00;;;21.33;37.30
52719;BME280;38616;42.140;24.760;2023-05-08T09:44:47;99668.91;;;21.40;37.31
52719;BME280;38616;42.140;24.760;2023-05-08T09:47:23;99667.22;;;21.23;37.32
52719;BME280;38616;42.140;24.760;2023-05-08T09:50:02;99663.88;;;20.76;38.03
52719;BME280;38616;42.140;24.760;2023-05-08T09:52:29;99662.47;;;21.07;37.69
52719;BME280;38616;42.140;24.760;2023-05-08T09:54:58;99659.59;;;21.32;37.26
52719;BME280;38616;42.140;24.760;2023-05-08T09:57:27;99656.84;;;20.91;37.79
52719;BME280;38616;42.140;24.760;2023-05-08T10:00:19;99653.09;;;20.84;38.21
52719;BME280;38616;42.140;24.760;2023-05-08T10:03:01;99645.47;;;20.93;38.18
52719;BME280;38616;42.140;24.760;2023-05-08T10:05:31;99646.47;;;21.29;38.27
52719;BME280;38616;42.140;24.760;2023-05-08T10:07:57;99635.28;;;21.38;37.53
52719;BME280;38616;42.140;24.760;2023-05-08T10:10:27;99637.66;;;21.23;37.87
52719;BME280;38616;42.140;24.760;2023-05-08T10:12:54;99643.09;;;21.20;37.87
52719;BME280;38616;42.140;24.760;2023-05-08T10:15:27;99635.88;;;21.31;38.08
52719;BME280;38616;42.140;24.760;2023-05-08T10:18:05;99627.69;;;21.63;37.81
52719;BME280;38616;42.140;24.760;2023-05-08T10:20:32;99623.06;;;21.83;37.79
52719;BME280;38616;42.140;24.760;2023-05-08T10:22:58;99624.06;;;21.91;37.09
52719;BME280;38616;42.140;24.760;2023-05-08T10:25:25;99624.16;;;21.79;37.27
52719;BME280;38616;42.140;24.760;2023-05-08T10:30:25;99615.13;;;21.37;38.31
52719;BME280;38616;42.140;24.760;2023-05-08T10:32:52;99612.09;;;20.98;38.62
52719;BME280;38616;42.140;24.760;2023-05-08T10:35:23;99607.41;;;21.43;38.93
52719;BME280;38616;42.140;24.760;2023-05-08T10:37:50;99608.09;;;21.84;38.22
52719;BME280;38616;42.140;24.760;2023-05-08T10:40:16;99599.72;;;21.81;37.96
52719;BME280;38616;42.140;24.760;2023-05-08T10:42:43;99594.91;;;21.78;37.88
52719;BME280;38616;42.140;24.760;2023-05-08T10:45:10;99604.25;;;22.05;38.03
52719;BME280;38616;42.140;24.760;2023-05-08T10:47:47;99590.50;;;22.25;38.27
52719;BME280;38616;42.140;24.760;2023-05-08T10:50:32;99591.72;;;22.43;37.97
52719;BME280;38616;42.140;24.760;2023-05-08T10:53:04;99590.00;;;22.39;37.67
52719;BME280;38616;42.140;24.760;2023-05-08T10:55:34;99592.66;;;21.99;38.01
52719;BME280;38616;42.140;24.760;2023-05-08T10:58:12;99593.03;;;21.82;38.53
52719;BME280;38616;42.140;24.760;2023-05-08T11:03:19;99590.25;;;21.82;38.42
52719;BME280;38616;42.140;24.760;2023-05-08T11:05:49;99588.91;;;21.60;38.52
52719;BME280;38616;42.140;24.760;2023-05-08T11:08:19;99594.16;;;21.20;39.10
52719;BME280;38616;42.140;24.760;2023-05-08T11:13:43;99586.25;;;21.63;38.72
52719;BME280;38616;42.140;24.760;2023-05-08T11:16:11;99582.41;;;22.00;38.25
52719;BME280;38616;42.140;24.760;2023-05-08T11:18:37;99575.56;;;22.29;38.50
52719;BME280;38616;42.140;24.760;2023-05-08T11:21:04;99570.84;;;22.66;38.18
52719;BME280;38616;42.140;24.760;2023-05-08T11:23:33;99576.56;;;22.93;37.41
52719;BME280;38616;42.140;24.760;2023-05-08T11:28:26;99583.06;;;22.29;37.95
52719;BME280;38616;42.140;24.760;2023-05-08T11:30:54;99582.56;;;22.07;38.61
52719;BME280;38616;42.140;24.760;2023-05-08T11:33:21;99577.00;;;22.23;37.85
52719;BME280;38616;42.140;24.760;2023-05-08T11:35:59;99564.84;;;22.44;37.76
52719;BME280;38616;42.140;24.760;2023-05-08T11:38:35;99563.34;;;22.66;37.90
52719;BME280;38616;42.140;24.760;2023-05-08T11:41:09;99549.88;;;22.84;37.08
52719;BME280;38616;42.140;24.760;2023-05-08T11:43:57;99546.22;;;22.61;37.35
52719;BME280;38616;42.140;24.760;2023-05-08T11:46:49;99551.19;;;22.71;36.80
52719;BME280;38616;42.140;24.760;2023-05-08T11:49:16;99558.91;;;22.62;37.10
52719;BME280;38616;42.140;24.760;2023-05-08T11:51:44;99547.56;;;22.86;36.88
52719;BME280;38616;42.140;24.760;2023-05-08T11:54:17;99552.19;;;23.02;36.57
52719;BME280;38616;42.140;24.760;2023-05-08T11:56:44;99543.56;;;23.07;35.91
52719;BME280;38616;42.140;24.760;2023-05-08T11:59:10;99553.19;;;23.13;36.00
52719;BME280;38616;42.140;24.760;2023-05-08T12:01:36;99546.09;;;22.93;36.37
52719;BME280;38616;42.140;24.760;2023-05-08T12:04:06;99536.69;;;23.21;35.99
52719;BME280;38616;42.140;24.760;2023-05-08T12:06:32;99524.81;;;23.40;35.82
52719;BME280;38616;42.140;24.760;2023-05-08T12:08:59;99516.78;;;23.58;36.11
52719;BME280;38616;42.140;24.760;2023-05-08T12:11:25;99520.34;;;23.58;36.12
52719;BME280;38616;42.140;24.760;2023-05-08T12:13:51;99512.00;;;23.55;36.12
52719;BME280;38616;42.140;24.760;2023-05-08T12:16:17;99515.25;;;23.37;36.01
52719;BME280;38616;42.140;24.760;2023-05-08T12:18:42;99517.16;;;22.90;36.83
52719;BME280;38616;42.140;24.760;2023-05-08T12:21:09;99517.38;;;22.81;36.67
52719;BME280;38616;42.140;24.760;2023-05-08T12:23:36;99511.31;;;22.76;37.26
52719;BME280;38616;42.140;24.760;2023-05-08T12:26:02;99509.66;;;22.91;37.37
52719;BME280;38616;42.140;24.760;2023-05-08T12:28:28;99503.69;;;22.88;37.18
52719;BME280;38616;42.140;24.760;2023-05-08T12:30:56;99505.72;;;22.72;37.57
52719;BME280;38616;42.140;24.760;2023-05-08T12:33:22;99503.44;;;22.78;37.59
52719;BME280;38616;42.140;24.760;2023-05-08T12:35:49;99488.56;;;23.06;37.37
52719;BME280;38616;42.140;24.760;2023-05-08T12:38:14;99491.53;;;22.97;37.51
52719;BME280;38616;42.140;24.760;2023-05-08T12:40:44;99502.44;;;22.86;37.70
52719;BME280;38616;42.140;24.760;2023-05-08T12:43:11;99512.72;;;22.46;38.06
52719;BME280;38616;42.140;24.760;2023-05-08T12:45:39;99501.09;;;22.40;37.98
52719;BME280;38616;42.140;24.760;2023-05-08T12:48:06;99500.19;;;22.72;37.82
52719;BME280;38616;42.140;24.760;2023-05-08T12:50:39;99482.06;;;22.98;37.45
52719;BME280;38616;42.140;24.760;2023-05-08T12:53:07;99480.16;;;23.02;37.61
52719;BME280;38616;42.140;24.760;2023-05-08T12:55:35;99490.94;;;23.07;37.05
52719;BME280;38616;42.140;24.760;2023-05-08T12:58:05;99499.66;;;22.86;37.32
52719;BME280;38616;42.140;24.760;2023-05-08T13:00:47;99495.75;;;23.10;36.95
52719;BME280;38616;42.140;24.760;2023-05-08T13:03:25;99494.88;;;23.06;36.67
52719;BME280;38616;42.140;24.760;2023-05-08T13:05:52;99494.44;;;23.24;36.89
52719;BME280;38616;42.140;24.760;2023-05-08T13:08:18;99492.66;;;23.35;37.21
52719;BME280;38616;42.140;24.760;2023-05-08T13:13:16;99495.81;;;22.71;37.63
52719;BME280;38616;42.140;24.760;2023-05-08T13:15:42;99485.97;;;22.54;37.98
52719;BME280;38616;42.140;24.760;2023-05-08T13:18:08;99492.53;;;22.65;38.16
52719;BME280;38616;42.140;24.760;2023-05-08T13:20:34;99487.06;;;22.88;38.38
52719;BME280;38616;42.140;24.760;2023-05-08T13:23:00;99486.88;;;23.01;37.57
52719;BME280;38616;42.140;24.760;2023-05-08T13:25:26;99474.56;;;22.98;37.69
52719;BME280;38616;42.140;24.760;2023-05-08T13:27:51;99466.31;;;23.02;37.39
52719;BME280;38616;42.140;24.760;2023-05-08T13:30:16;99470.44;;;23.31;37.10
52719;BME280;38616;42.140;24.760;2023-05-08T13:32:42;99467.09;;;23.45;36.70
52719;BME280;38616;42.140;24.760;2023-05-08T13:35:08;99460.72;;;22.98;37.50
52719;BME280;38616;42.140;24.760;2023-05-08T13:37:33;99467.81;;;22.96;37.32
52719;BME280;38616;42.140;24.760;2023-05-08T13:39:58;99456.97;;;23.10;37.46
52719;BME280;38616;42.140;24.760;2023-05-08T13:42:24;99465.69;;;23.12;37.45
52719;BME280;38616;42.140;24.760;2023-05-08T13:44:49;99458.06;;;23.25;36.95
52719;BME280;38616;42.140;24.760;2023-05-08T13:47:15;99455.72;;;23.54;36.76